Terminal Aerodrome Forecast
Issued by NWS Wilmington, OH

Current Version | Previous Version | Graphics & Text | Print | Product List | Glossary On
Versions: 1 2 3 4 5 6 7 8 9 10 11 12 13 14 15 16 17 18 19 20 21 22 23
508
FTUS41 KILN 030531
TAFDAY
TAF
KDAY 030531Z 0306/0406 28010KT P6SM OVC035
     FM031000 28008KT P6SM OVC025
     FM032200 22003KT P6SM BKN035=

USA.gov is the U.S. government's official web portal to all federal, state and local government web resources and services.